sensor_id;sensor_type;location;lat;lon;timestamp;temperature;humidity
12223;DHT22;6174;49.058;8.524;2023-06-24T06:17:46;19.90;99.90
12223;DHT22;6174;49.058;8.524;2023-06-24T06:20:20;19.90;98.60
12223;DHT22;6174;49.058;8.524;2023-06-24T06:22:55;19.90;99.30
12223;DHT22;6174;49.058;8.524;2023-06-24T06:25:23;19.90;99.40
12223;DHT22;6174;49.058;8.524;2023-06-24T06:28:00;20.00;99.50
12223;DHT22;6174;49.058;8.524;2023-06-24T06:30:27;20.20;99.40
12223;DHT22;6174;49.058;8.524;2023-06-24T06:32:55;20.30;99.30
12223;DHT22;6174;49.058;8.524;2023-06-24T06:35:22;20.30;99.00
12223;DHT22;6174;49.058;8.524;2023-06-24T06:37:49;20.40;98.70
12223;DHT22;6174;49.058;8.524;2023-06-24T06:40:18;20.50;98.80
12223;DHT22;6174;49.058;8.524;2023-06-24T06:42:45;20.50;98.60
12223;DHT22;6174;49.058;8.524;2023-06-24T06:45:12;20.60;99.60
12223;DHT22;6174;49.058;8.524;2023-06-24T06:47:38;20.70;98.50
12223;DHT22;6174;49.058;8.524;2023-06-24T06:50:07;20.80;99.00
12223;DHT22;6174;49.058;8.524;2023-06-24T06:52:34;20.90;98.00
12223;DHT22;6174;49.058;8.524;2023-06-24T06:55:01;21.00;97.40
12223;DHT22;6174;49.058;8.524;2023-06-24T06:57:28;21.10;97.50
12223;DHT22;6174;49.058;8.524;2023-06-24T06:59:55;21.20;96.80
12223;DHT22;6174;49.058;8.524;2023-06-24T07:02:22;21.20;97.00
12223;DHT22;6174;49.058;8.524;2023-06-24T07:04:49;21.40;96.80
12223;DHT22;6174;49.058;8.524;2023-06-24T07:07:17;21.50;96.10
12223;DHT22;6174;49.058;8.524;2023-06-24T07:09:44;21.60;96.60
12223;DHT22;6174;49.058;8.524;2023-06-24T07:12:11;21.70;97.00
12223;DHT22;6174;49.058;8.524;2023-06-24T07:14:39;21.60;97.20
12223;DHT22;6174;49.058;8.524;2023-06-24T07:17:07;21.50;97.20
12223;DHT22;6174;49.058;8.524;2023-06-24T07:19:34;21.40;97.50
12223;DHT22;6174;49.058;8.524;2023-06-24T07:22:00;21.30;98.30
12223;DHT22;6174;49.058;8.524;2023-06-24T07:24:28;21.50;98.60
12223;DHT22;6174;49.058;8.524;2023-06-24T07:26:55;21.60;97.80
12223;DHT22;6174;49.058;8.524;2023-06-24T07:29:22;21.60;96.40
12223;DHT22;6174;49.058;8.524;2023-06-24T07:31:49;21.60;96.60
12223;DHT22;6174;49.058;8.524;2023-06-24T07:34:16;21.80;97.10
12223;DHT22;6174;49.058;8.524;2023-06-24T07:40:24;22.10;97.70
12223;DHT22;6174;49.058;8.524;2023-06-24T07:42:53;22.20;97.20
12223;DHT22;6174;49.058;8.524;2023-06-24T07:45:20;22.40;96.70
12223;DHT22;6174;49.058;8.524;2023-06-24T07:47:46;22.40;96.10
12223;DHT22;6174;49.058;8.524;2023-06-24T07:50:13;22.40;95.00
12223;DHT22;6174;49.058;8.524;2023-06-24T07:52:40;22.30;95.30
12223;DHT22;6174;49.058;8.524;2023-06-24T07:55:07;22.30;95.30
12223;DHT22;6174;49.058;8.524;2023-06-24T07:57:36;22.30;96.00
12223;DHT22;6174;49.058;8.524;2023-06-24T08:00:03;22.30;95.10
12223;DHT22;6174;49.058;8.524;2023-06-24T08:02:35;22.30;95.10
12223;DHT22;6174;49.058;8.524;2023-06-24T08:05:01;22.40;96.90
12223;DHT22;6174;49.058;8.524;2023-06-24T08:07:28;22.60;97.10
12223;DHT22;6174;49.058;8.524;2023-06-24T08:09:55;22.70;96.40
12223;DHT22;6174;49.058;8.524;2023-06-24T08:12:22;22.70;94.60
12223;DHT22;6174;49.058;8.524;2023-06-24T08:14:50;22.70;94.60
12223;DHT22;6174;49.058;8.524;2023-06-24T08:17:17;22.80;93.70
12223;DHT22;6174;49.058;8.524;2023-06-24T08:19:44;22.90;94.50
12223;DHT22;6174;49.058;8.524;2023-06-24T08:22:11;22.90;92.10
12223;DHT22;6174;49.058;8.524;2023-06-24T08:24:39;22.70;91.30
12223;DHT22;6174;49.058;8.524;2023-06-24T08:27:06;22.80;92.00
12223;DHT22;6174;49.058;8.524;2023-06-24T08:29:34;22.90;92.10
12223;DHT22;6174;49.058;8.524;2023-06-24T08:32:05;23.00;92.70
12223;DHT22;6174;49.058;8.524;2023-06-24T08:34:32;23.10;91.60
12223;DHT22;6174;49.058;8.524;2023-06-24T08:36:59;23.10;91.40
12223;DHT22;6174;49.058;8.524;2023-06-24T08:39:26;23.20;92.30
12223;DHT22;6174;49.058;8.524;2023-06-24T08:41:52;23.20;91.20
12223;DHT22;6174;49.058;8.524;2023-06-24T08:44:20;23.30;91.30
12223;DHT22;6174;49.058;8.524;2023-06-24T08:46:47;23.50;90.20
12223;DHT22;6174;49.058;8.524;2023-06-24T08:49:24;23.70;88.20
12223;DHT22;6174;49.058;8.524;2023-06-24T08:51:56;23.70;89.50
12223;DHT22;6174;49.058;8.524;2023-06-24T08:54:25;23.90;88.10
12223;DHT22;6174;49.058;8.524;2023-06-24T08:56:52;24.10;83.40
12223;DHT22;6174;49.058;8.524;2023-06-24T08:59:19;24.10;82.20
12223;DHT22;6174;49.058;8.524;2023-06-24T09:01:46;24.20;81.90
12223;DHT22;6174;49.058;8.524;2023-06-24T09:04:13;24.30;83.60
12223;DHT22;6174;49.058;8.524;2023-06-24T09:06:41;24.30;82.80
12223;DHT22;6174;49.058;8.524;2023-06-24T09:09:17;24.20;79.10
12223;DHT22;6174;49.058;8.524;2023-06-24T09:11:52;24.10;80.50
12223;DHT22;6174;49.058;8.524;2023-06-24T09:14:19;24.10;82.50
12223;DHT22;6174;49.058;8.524;2023-06-24T09:16:51;24.40;79.50
12223;DHT22;6174;49.058;8.524;2023-06-24T09:19:20;24.40;79.40
12223;DHT22;6174;49.058;8.524;2023-06-24T09:21:49;24.70;75.80
12223;DHT22;6174;49.058;8.524;2023-06-24T09:24:17;24.80;71.90
12223;DHT22;6174;49.058;8.524;2023-06-24T09:26:44;24.90;74.10
12223;DHT22;6174;49.058;8.524;2023-06-24T09:29:12;25.00;76.70
12223;DHT22;6174;49.058;8.524;2023-06-24T09:31:47;25.10;71.80
12223;DHT22;6174;49.058;8.524;2023-06-24T09:34:14;25.10;75.20
12223;DHT22;6174;49.058;8.524;2023-06-24T09:36:45;25.00;74.20
12223;DHT22;6174;49.058;8.524;2023-06-24T09:39:13;25.10;74.60
12223;DHT22;6174;49.058;8.524;2023-06-24T09:41:40;25.10;69.20
12223;DHT22;6174;49.058;8.524;2023-06-24T09:44:08;25.20;67.20
12223;DHT22;6174;49.058;8.524;2023-06-24T09:46:37;25.10;70.30
12223;DHT22;6174;49.058;8.524;2023-06-24T09:49:04;25.20;74.60
12223;DHT22;6174;49.058;8.524;2023-06-24T09:51:32;25.30;73.00
12223;DHT22;6174;49.058;8.524;2023-06-24T09:54:05;25.30;73.40
12223;DHT22;6174;49.058;8.524;2023-06-24T09:56:35;25.30;72.60
12223;DHT22;6174;49.058;8.524;2023-06-24T09:59:04;25.20;70.50
12223;DHT22;6174;49.058;8.524;2023-06-24T10:01:32;25.20;72.50
12223;DHT22;6174;49.058;8.524;2023-06-24T10:04:01;25.20;71.90
12223;DHT22;6174;49.058;8.524;2023-06-24T10:06:29;25.20;70.70
12223;DHT22;6174;49.058;8.524;2023-06-24T10:08:56;25.00;68.70
12223;DHT22;6174;49.058;8.524;2023-06-24T10:11:23;25.00;71.40
12223;DHT22;6174;49.058;8.524;2023-06-24T10:13:51;25.10;71.10
12223;DHT22;6174;49.058;8.524;2023-06-24T10:16:18;25.20;73.80
12223;DHT22;6174;49.058;8.524;2023-06-24T10:18:45;25.50;72.50
12223;DHT22;6174;49.058;8.524;2023-06-24T10:21:14;25.60;73.80
12223;DHT22;6174;49.058;8.524;2023-06-24T10:23:42;25.70;69.50
12223;DHT22;6174;49.058;8.524;2023-06-24T10:26:22;25.80;71.30
12223;DHT22;6174;49.058;8.524;2023-06-24T10:29:10;25.80;69.30
12223;DHT22;6174;49.058;8.524;2023-06-24T10:31:52;25.60;68.40
12223;DHT22;6174;49.058;8.524;2023-06-24T10:34:32;25.50;69.80
12223;DHT22;6174;49.058;8.524;2023-06-24T10:37:00;25.40;69.50
12223;DHT22;6174;49.058;8.524;2023-06-24T10:39:38;25.40;68.30
12223;DHT22;6174;49.058;8.524;2023-06-24T10:42:30;25.40;68.50
12223;DHT22;6174;49.058;8.524;2023-06-24T10:45:01;25.50;73.30
12223;DHT22;6174;49.058;8.524;2023-06-24T10:47:29;25.50;70.40
12223;DHT22;6174;49.058;8.524;2023-06-24T10:49:56;25.60;73.00
12223;DHT22;6174;49.058;8.524;2023-06-24T10:52:23;25.60;71.20
12223;DHT22;6174;49.058;8.524;2023-06-24T10:54:51;25.60;68.30
12223;DHT22;6174;49.058;8.524;2023-06-24T10:57:22;25.50;71.70
12223;DHT22;6174;49.058;8.524;2023-06-24T10:59:50;25.50;74.40
12223;DHT22;6174;49.058;8.524;2023-06-24T11:02:22;25.30;73.40
12223;DHT22;6174;49.058;8.524;2023-06-24T11:04:50;25.40;72.80
12223;DHT22;6174;49.058;8.524;2023-06-24T11:07:18;25.50;72.90
12223;DHT22;6174;49.058;8.524;2023-06-24T11:09:49;25.50;72.50
12223;DHT22;6174;49.058;8.524;2023-06-24T11:12:17;25.40;73.00
12223;DHT22;6174;49.058;8.524;2023-06-24T11:14:44;25.50;73.60
12223;DHT22;6174;49.058;8.524;2023-06-24T11:17:11;25.60;72.30
12223;DHT22;6174;49.058;8.524;2023-06-24T11:19:40;25.60;71.60
12223;DHT22;6174;49.058;8.524;2023-06-24T11:22:07;25.70;73.70
12223;DHT22;6174;49.058;8.524;2023-06-24T11:24:35;25.80;71.90
12223;DHT22;6174;49.058;8.524;2023-06-24T11:27:04;25.80;70.30
12223;DHT22;6174;49.058;8.524;2023-06-24T11:29:32;25.80;72.20
12223;DHT22;6174;49.058;8.524;2023-06-24T11:32:00;25.70;70.70
12223;DHT22;6174;49.058;8.524;2023-06-24T11:34:26;25.70;71.20
12223;DHT22;6174;49.058;8.524;2023-06-24T11:36:54;25.80;68.50
12223;DHT22;6174;49.058;8.524;2023-06-24T11:39:23;25.90;69.90
12223;DHT22;6174;49.058;8.524;2023-06-24T11:41:53;25.90;69.90
12223;DHT22;6174;49.058;8.524;2023-06-24T11:44:21;26.10;71.90
12223;DHT22;6174;49.058;8.524;2023-06-24T11:46:47;26.20;68.40
12223;DHT22;6174;49.058;8.524;2023-06-24T11:49:15;26.30;64.20
12223;DHT22;6174;49.058;8.524;2023-06-24T11:51:49;26.30;66.20
12223;DHT22;6174;49.058;8.524;2023-06-24T11:54:18;26.30;64.00
12223;DHT22;6174;49.058;8.524;2023-06-24T11:56:50;26.20;63.30
12223;DHT22;6174;49.058;8.524;2023-06-24T11:59:18;26.20;64.40
12223;DHT22;6174;49.058;8.524;2023-06-24T12:01:46;26.30;64.60
12223;DHT22;6174;49.058;8.524;2023-06-24T12:04:28;26.30;59.60
12223;DHT22;6174;49.058;8.524;2023-06-24T12:06:55;26.40;63.00
12223;DHT22;6174;49.058;8.524;2023-06-24T12:09:23;26.50;62.30
12223;DHT22;6174;49.058;8.524;2023-06-24T12:11:51;26.50;59.70
12223;DHT22;6174;49.058;8.524;2023-06-24T12:14:19;26.60;61.50
12223;DHT22;6174;49.058;8.524;2023-06-24T12:16:45;26.60;61.30
12223;DHT22;6174;49.058;8.524;2023-06-24T12:19:12;26.50;61.40
12223;DHT22;6174;49.058;8.524;2023-06-24T12:21:39;26.60;63.50
12223;DHT22;6174;49.058;8.524;2023-06-24T12:24:06;26.60;61.30
12223;DHT22;6174;49.058;8.524;2023-06-24T12:26:35;26.70;63.50
12223;DHT22;6174;49.058;8.524;2023-06-24T12:29:03;26.70;63.80
12223;DHT22;6174;49.058;8.524;2023-06-24T12:31:30;26.70;65.00
12223;DHT22;6174;49.058;8.524;2023-06-24T12:33:57;26.80;61.60
12223;DHT22;6174;49.058;8.524;2023-06-24T12:36:24;26.80;62.20
12223;DHT22;6174;49.058;8.524;2023-06-24T12:38:50;26.80;64.60
12223;DHT22;6174;49.058;8.524;2023-06-24T12:41:17;26.80;66.60
12223;DHT22;6174;49.058;8.524;2023-06-24T12:43:46;26.80;62.30
12223;DHT22;6174;49.058;8.524;2023-06-24T12:46:12;26.80;60.30
12223;DHT22;6174;49.058;8.524;2023-06-24T12:48:39;26.80;60.90
12223;DHT22;6174;49.058;8.524;2023-06-24T12:51:06;26.80;60.50
12223;DHT22;6174;49.058;8.524;2023-06-24T12:53:33;26.80;61.00
12223;DHT22;6174;49.058;8.524;2023-06-24T12:56:00;26.80;58.90
12223;DHT22;6174;49.058;8.524;2023-06-24T12:58:27;26.80;56.60
12223;DHT22;6174;49.058;8.524;2023-06-24T13:00:55;26.90;58.10
12223;DHT22;6174;49.058;8.524;2023-06-24T13:03:22;26.90;57.60
12223;DHT22;6174;49.058;8.524;2023-06-24T13:05:51;26.90;58.90
12223;DHT22;6174;49.058;8.524;2023-06-24T13:08:19;26.90;60.60
12223;DHT22;6174;49.058;8.524;2023-06-24T13:10:54;26.90;59.00
12223;DHT22;6174;49.058;8.524;2023-06-24T13:13:20;27.00;59.10
12223;DHT22;6174;49.058;8.524;2023-06-24T13:15:47;27.10;59.00
12223;DHT22;6174;49.058;8.524;2023-06-24T13:18:15;27.00;58.10
12223;DHT22;6174;49.058;8.524;2023-06-24T13:20:43;27.20;56.80
12223;DHT22;6174;49.058;8.524;2023-06-24T13:23:10;27.20;57.80
12223;DHT22;6174;49.058;8.524;2023-06-24T13:25:40;27.20;57.10
12223;DHT22;6174;49.058;8.524;2023-06-24T13:28:09;27.20;60.30
12223;DHT22;6174;49.058;8.524;2023-06-24T13:30:36;27.20;59.00
12223;DHT22;6174;49.058;8.524;2023-06-24T13:33:05;27.20;59.40
12223;DHT22;6174;49.058;8.524;2023-06-24T13:35:33;27.20;58.40
12223;DHT22;6174;49.058;8.524;2023-06-24T13:38:00;27.20;57.20
12223;DHT22;6174;49.058;8.524;2023-06-24T13:40:27;27.20;58.50
12223;DHT22;6174;49.058;8.524;2023-06-24T13:42:54;27.20;59.30
12223;DHT22;6174;49.058;8.524;2023-06-24T13:45:24;27.30;56.40
12223;DHT22;6174;49.058;8.524;2023-06-24T13:47:50;27.30;56.60
12223;DHT22;6174;49.058;8.524;2023-06-24T13:50:17;27.30;57.80
12223;DHT22;6174;49.058;8.524;2023-06-24T13:52:45;27.30;58.60
12223;DHT22;6174;49.058;8.524;2023-06-24T13:55:12;27.50;58.10
12223;DHT22;6174;49.058;8.524;2023-06-24T13:57:39;27.60;58.50
12223;DHT22;6174;49.058;8.524;2023-06-24T14:00:18;27.60;57.10
12223;DHT22;6174;49.058;8.524;2023-06-24T14:02:54;27.50;54.90
12223;DHT22;6174;49.058;8.524;2023-06-24T14:05:50;27.50;56.60
12223;DHT22;6174;49.058;8.524;2023-06-24T14:08:18;27.40;57.50
12223;DHT22;6174;49.058;8.524;2023-06-24T14:17:45;27.30;57.30
12223;DHT22;6174;49.058;8.524;2023-06-24T14:20:19;27.20;55.80
12223;DHT22;6174;49.058;8.524;2023-06-24T14:23:05;27.10;56.80
12223;DHT22;6174;49.058;8.524;2023-06-24T14:25:33;27.10;56.50
12223;DHT22;6174;49.058;8.524;2023-06-24T14:28:00;27.10;57.80
12223;DHT22;6174;49.058;8.524;2023-06-24T14:30:29;27.10;58.20
12223;DHT22;6174;49.058;8.524;2023-06-24T14:32:58;27.10;57.80
12223;DHT22;6174;49.058;8.524;2023-06-24T14:35:28;27.10;57.90
12223;DHT22;6174;49.058;8.524;2023-06-24T14:37:55;27.20;58.30
12223;DHT22;6174;49.058;8.524;2023-06-24T14:40:30;27.20;55.60
12223;DHT22;6174;49.058;8.524;2023-06-24T14:43:01;27.20;54.70
12223;DHT22;6174;49.058;8.524;2023-06-24T14:45:28;27.10;55.10
12223;DHT22;6174;49.058;8.524;2023-06-24T14:47:55;27.10;57.20
12223;DHT22;6174;49.058;8.524;2023-06-24T14:50:22;27.20;57.80
12223;DHT22;6174;49.058;8.524;2023-06-24T14:52:49;27.20;58.60
12223;DHT22;6174;49.058;8.524;2023-06-24T14:55:18;27.10;57.00
12223;DHT22;6174;49.058;8.524;2023-06-24T14:57:48;27.10;57.10
12223;DHT22;6174;49.058;8.524;2023-06-24T15:00:22;27.10;56.40
12223;DHT22;6174;49.058;8.524;2023-06-24T15:02:52;27.10;57.80
12223;DHT22;6174;49.058;8.524;2023-06-24T15:05:19;27.10;57.80
12223;DHT22;6174;49.058;8.524;2023-06-24T15:07:45;27.10;58.00
12223;DHT22;6174;49.058;8.524;2023-06-24T15:10:27;27.10;58.30
12223;DHT22;6174;49.058;8.524;2023-06-24T15:12:55;27.10;57.00
12223;DHT22;6174;49.058;8.524;2023-06-24T15:15:23;27.00;55.80
12223;DHT22;6174;49.058;8.524;2023-06-24T15:17:53;27.00;55.50
12223;DHT22;6174;49.058;8.524;2023-06-24T15:20:29;27.00;56.70
12223;DHT22;6174;49.058;8.524;2023-06-24T15:23:00;27.00;56.60
12223;DHT22;6174;49.058;8.524;2023-06-24T15:26:00;27.00;56.50
12223;DHT22;6174;49.058;8.524;2023-06-24T15:28:45;27.00;57.20
12223;DHT22;6174;49.058;8.524;2023-06-24T15:37:37;26.90;57.70
12223;DHT22;6174;49.058;8.524;2023-06-24T15:43:14;26.90;57.30
12223;DHT22;6174;49.058;8.524;2023-06-24T15:45:41;26.90;58.50
12223;DHT22;6174;49.058;8.524;2023-06-24T15:58:57;26.80;57.50
12223;DHT22;6174;49.058;8.524;2023-06-24T16:01:24;26.80;58.10
12223;DHT22;6174;49.058;8.524;2023-06-24T16:03:51;26.80;58.40
12223;DHT22;6174;49.058;8.524;2023-06-24T16:06:18;26.80;59.00
12223;DHT22;6174;49.058;8.524;2023-06-24T16:11:42;26.80;55.50
12223;DHT22;6174;49.058;8.524;2023-06-24T16:15:12;26.80;56.20
12223;DHT22;6174;49.058;8.524;2023-06-24T16:17:53;26.90;58.00
12223;DHT22;6174;49.058;8.524;2023-06-24T16:20:20;26.80;57.90
12223;DHT22;6174;49.058;8.524;2023-06-24T16:22:47;26.80;57.00
12223;DHT22;6174;49.058;8.524;2023-06-24T16:25:13;26.90;58.90
12223;DHT22;6174;49.058;8.524;2023-06-24T16:27:41;26.90;59.20
12223;DHT22;6174;49.058;8.524;2023-06-24T16:30:10;26.90;57.40
12223;DHT22;6174;49.058;8.524;2023-06-24T16:32:41;26.90;56.60
12223;DHT22;6174;49.058;8.524;2023-06-24T16:35:08;26.90;57.40
12223;DHT22;6174;49.058;8.524;2023-06-24T16:37:34;26.90;57.70
12223;DHT22;6174;49.058;8.524;2023-06-24T16:40:09;26.90;57.70
12223;DHT22;6174;49.058;8.524;2023-06-24T16:42:36;26.90;58.30
12223;DHT22;6174;49.058;8.524;2023-06-24T16:45:04;26.90;58.00
12223;DHT22;6174;49.058;8.524;2023-06-24T16:47:33;26.90;59.20
12223;DHT22;6174;49.058;8.524;2023-06-24T16:53:29;26.90;59.90
12223;DHT22;6174;49.058;8.524;2023-06-24T16:59:20;26.80;58.40
12223;DHT22;6174;49.058;8.524;2023-06-24T17:04:14;26.80;56.90
12223;DHT22;6174;49.058;8.524;2023-06-24T17:05:13;26.80;57.50
12223;DHT22;6174;49.058;8.524;2023-06-24T17:07:40;26.90;57.70
12223;DHT22;6174;49.058;8.524;2023-06-24T17:10:08;26.90;60.20
12223;DHT22;6174;49.058;8.524;2023-06-24T17:12:41;26.90;57.70
12223;DHT22;6174;49.058;8.524;2023-06-24T17:15:09;27.00;58.80
12223;DHT22;6174;49.058;8.524;2023-06-24T17:17:50;26.90;58.50
12223;DHT22;6174;49.058;8.524;2023-06-24T17:20:18;27.00;57.50
12223;DHT22;6174;49.058;8.524;2023-06-24T17:22:51;27.00;57.60
12223;DHT22;6174;49.058;8.524;2023-06-24T17:25:20;27.10;58.40
12223;DHT22;6174;49.058;8.524;2023-06-24T17:28:01;27.20;58.50
12223;DHT22;6174;49.058;8.524;2023-06-24T17:30:31;27.40;57.90
12223;DHT22;6174;49.058;8.524;2023-06-24T17:32:57;27.40;57.90
12223;DHT22;6174;49.058;8.524;2023-06-24T17:35:26;27.30;57.40
12223;DHT22;6174;49.058;8.524;2023-06-24T17:37:52;27.10;56.70
12223;DHT22;6174;49.058;8.524;2023-06-24T17:40:20;27.10;57.10
12223;DHT22;6174;49.058;8.524;2023-06-24T17:42:47;27.00;58.10
12223;DHT22;6174;49.058;8.524;2023-06-24T17:45:14;27.00;58.60
12223;DHT22;6174;49.058;8.524;2023-06-24T17:47:41;27.00;59.70
12223;DHT22;6174;49.058;8.524;2023-06-24T17:50:10;26.90;58.50
12223;DHT22;6174;49.058;8.524;2023-06-24T17:52:53;26.90;58.80
12223;DHT22;6174;49.058;8.524;2023-06-24T17:55:20;26.90;59.20
12223;DHT22;6174;49.058;8.524;2023-06-24T17:57:54;26.90;59.30
12223;DHT22;6174;49.058;8.524;2023-06-24T18:00:21;26.90;59.80
12223;DHT22;6174;49.058;8.524;2023-06-24T18:02:47;27.00;59.80
12223;DHT22;6174;49.058;8.524;2023-06-24T18:05:14;26.80;60.60
12223;DHT22;6174;49.058;8.524;2023-06-24T18:07:41;26.80;59.80
12223;DHT22;6174;49.058;8.524;2023-06-24T18:10:10;26.80;60.40
12223;DHT22;6174;49.058;8.524;2023-06-24T18:12:37;26.80;60.40
12223;DHT22;6174;49.058;8.524;2023-06-24T18:15:09;26.70;59.70
12223;DHT22;6174;49.058;8.524;2023-06-24T18:17:36;26.80;60.00
12223;DHT22;6174;49.058;8.524;2023-06-24T18:33:35;26.70;60.20
12223;DHT22;6174;49.058;8.524;2023-06-24T18:36:02;26.30;63.60
12223;DHT22;6174;49.058;8.524;2023-06-24T18:38:29;26.30;64.70
12223;DHT22;6174;49.058;8.524;2023-06-24T18:40:56;26.20;62.80
12223;DHT22;6174;49.058;8.524;2023-06-24T18:43:23;26.10;62.90
12223;DHT22;6174;49.058;8.524;2023-06-24T18:45:49;26.00;62.70
12223;DHT22;6174;49.058;8.524;2023-06-24T18:48:16;26.00;64.10
12223;DHT22;6174;49.058;8.524;2023-06-24T18:50:45;25.90;64.00
12223;DHT22;6174;49.058;8.524;2023-06-24T18:53:11;25.90;64.50
12223;DHT22;6174;49.058;8.524;2023-06-24T18:55:38;25.80;65.60
12223;DHT22;6174;49.058;8.524;2023-06-24T18:58:06;25.60;64.00
12223;DHT22;6174;49.058;8.524;2023-06-24T19:00:33;25.60;63.90
12223;DHT22;6174;49.058;8.524;2023-06-24T19:03:00;25.50;63.90
12223;DHT22;6174;49.058;8.524;2023-06-24T19:05:27;25.50;64.40
12223;DHT22;6174;49.058;8.524;2023-06-24T19:07:55;25.40;64.70
12223;DHT22;6174;49.058;8.524;2023-06-24T19:10:21;25.30;65.60
12223;DHT22;6174;49.058;8.524;2023-06-24T19:12:48;25.20;65.90
12223;DHT22;6174;49.058;8.524;2023-06-24T19:15:18;25.20;66.50
12223;DHT22;6174;49.058;8.524;2023-06-24T19:17:45;25.10;66.80
12223;DHT22;6174;49.058;8.524;2023-06-24T19:20:12;25.00;66.80
12223;DHT22;6174;49.058;8.524;2023-06-24T19:22:39;25.00;67.60
12223;DHT22;6174;49.058;8.524;2023-06-24T19:25:09;24.90;67.30
12223;DHT22;6174;49.058;8.524;2023-06-24T19:27:36;24.80;67.10
12223;DHT22;6174;49.058;8.524;2023-06-24T19:30:04;24.80;67.10
12223;DHT22;6174;49.058;8.524;2023-06-24T19:32:31;24.70;67.50
12223;DHT22;6174;49.058;8.524;2023-06-24T19:34:58;24.60;67.50
12223;DHT22;6174;49.058;8.524;2023-06-24T19:37:26;24.60;68.20
12223;DHT22;6174;49.058;8.524;2023-06-24T19:39:53;24.50;67.40
12223;DHT22;6174;49.058;8.524;2023-06-24T19:42:21;24.50;67.60
12223;DHT22;6174;49.058;8.524;2023-06-24T19:44:48;24.40;67.30
12223;DHT22;6174;49.058;8.524;2023-06-24T19:47:15;24.30;69.30
12223;DHT22;6174;49.058;8.524;2023-06-24T19:49:49;24.30;69.30
12223;DHT22;6174;49.058;8.524;2023-06-24T19:52:16;24.30;68.60
12223;DHT22;6174;49.058;8.524;2023-06-24T19:54:43;24.20;68.90
12223;DHT22;6174;49.058;8.524;2023-06-24T19:57:10;24.20;69.00
12223;DHT22;6174;49.058;8.524;2023-06-24T19:59:38;24.20;69.40
12223;DHT22;6174;49.058;8.524;2023-06-24T20:02:06;24.10;70.10
12223;DHT22;6174;49.058;8.524;2023-06-24T20:04:33;24.20;69.30
12223;DHT22;6174;49.058;8.524;2023-06-24T20:07:01;23.70;68.70
12223;DHT22;6174;49.058;8.524;2023-06-24T20:09:28;24.00;68.80
12223;DHT22;6174;49.058;8.524;2023-06-24T20:11:55;24.00;68.30
12223;DHT22;6174;49.058;8.524;2023-06-24T20:14:22;24.00;67.70
12223;DHT22;6174;49.058;8.524;2023-06-24T20:16:51;24.00;68.60
12223;DHT22;6174;49.058;8.524;2023-06-24T20:19:18;24.00;68.60
12223;DHT22;6174;49.058;8.524;2023-06-24T20:21:45;24.00;70.10
12223;DHT22;6174;49.058;8.524;2023-06-24T20:24:11;23.80;69.50
12223;DHT22;6174;49.058;8.524;2023-06-24T20:26:40;23.70;70.90
12223;DHT22;6174;49.058;8.524;2023-06-24T20:29:08;23.60;71.70
12223;DHT22;6174;49.058;8.524;2023-06-24T20:31:35;23.40;72.50
12223;DHT22;6174;49.058;8.524;2023-06-24T20:34:03;23.30;73.90
12223;DHT22;6174;49.058;8.524;2023-06-24T20:36:30;23.20;73.60
12223;DHT22;6174;49.058;8.524;2023-06-24T20:38:57;23.10;74.00
12223;DHT22;6174;49.058;8.524;2023-06-24T20:41:25;23.00;74.60
12223;DHT22;6174;49.058;8.524;2023-06-24T20:43:56;22.90;74.80
12223;DHT22;6174;49.058;8.524;2023-06-24T20:46:23;22.90;75.40
12223;DHT22;6174;49.058;8.524;2023-06-24T20:48:50;22.80;76.00
12223;DHT22;6174;49.058;8.524;2023-06-24T20:51:19;22.70;76.70
12223;DHT22;6174;49.058;8.524;2023-06-24T20:53:46;22.60;77.50
12223;DHT22;6174;49.058;8.524;2023-06-24T20:56:13;22.60;77.80
12223;DHT22;6174;49.058;8.524;2023-06-24T20:58:40;22.50;77.90
12223;DHT22;6174;49.058;8.524;2023-06-24T21:01:08;22.40;78.20
12223;DHT22;6174;49.058;8.524;2023-06-24T21:03:37;22.30;78.60
12223;DHT22;6174;49.058;8.524;2023-06-24T21:06:04;22.30;79.10
12223;DHT22;6174;49.058;8.524;2023-06-24T21:08:33;22.20;79.20
12223;DHT22;6174;49.058;8.524;2023-06-24T21:10:59;22.20;79.40
12223;DHT22;6174;49.058;8.524;2023-06-24T21:13:27;22.10;80.00
12223;DHT22;6174;49.058;8.524;2023-06-24T21:15:53;22.10;79.80
12223;DHT22;6174;49.058;8.524;2023-06-24T21:18:20;22.00;79.90
12223;DHT22;6174;49.058;8.524;2023-06-24T21:20:48;22.00;80.10
12223;DHT22;6174;49.058;8.524;2023-06-24T21:23:14;22.00;80.40
12223;DHT22;6174;49.058;8.524;2023-06-24T21:25:43;22.00;80.50
12223;DHT22;6174;49.058;8.524;2023-06-24T21:28:10;21.90;80.70
12223;DHT22;6174;49.058;8.524;2023-06-24T21:30:37;22.00;80.90
12223;DHT22;6174;49.058;8.524;2023-06-24T21:33:04;21.90;81.00
12223;DHT22;6174;49.058;8.524;2023-06-24T21:35:31;21.80;81.30
12223;DHT22;6174;49.058;8.524;2023-06-24T21:37:58;21.80;81.60
12223;DHT22;6174;49.058;8.524;2023-06-24T21:40:24;21.80;81.80
12223;DHT22;6174;49.058;8.524;2023-06-24T21:42:53;21.70;81.80
12223;DHT22;6174;49.058;8.524;2023-06-24T21:45:20;21.70;81.90
12223;DHT22;6174;49.058;8.524;2023-06-24T21:47:47;21.60;82.40
12223;DHT22;6174;49.058;8.524;2023-06-24T21:50:13;21.60;83.00
12223;DHT22;6174;49.058;8.524;2023-06-24T21:52:40;21.50;83.50
12223;DHT22;6174;49.058;8.524;2023-06-24T21:55:08;21.40;83.80
12223;DHT22;6174;49.058;8.524;2023-06-24T21:57:34;21.40;83.90
12223;DHT22;6174;49.058;8.524;2023-06-24T22:14:28;21.30;82.30
12223;DHT22;6174;49.058;8.524;2023-06-24T22:17:05;21.30;82.50
12223;DHT22;6174;49.058;8.524;2023-06-24T22:19:32;21.20;82.80
12223;DHT22;6174;49.058;8.524;2023-06-24T22:21:59;21.20;83.20
12223;DHT22;6174;49.058;8.524;2023-06-24T22:24:26;21.10;83.80
12223;DHT22;6174;49.058;8.524;2023-06-24T22:26:53;21.10;84.20
12223;DHT22;6174;49.058;8.524;2023-06-24T22:29:20;21.50;84.70
